createdAt,value
2023-04-21T00:10:39.335Z,13.60
2023-04-21T00:21:39.244Z,13.70
2023-04-21T00:32:39.144Z,13.60
2023-04-21T00:43:38.983Z,11.90
2023-04-21T00:54:38.868Z,13.50
2023-04-21T01:05:38.754Z,12.60
2023-04-21T01:16:38.639Z,13.20
2023-04-21T01:27:38.491Z,11.50
2023-04-21T01:38:38.358Z,11.40
2023-04-21T01:49:38.228Z,13.60
2023-04-21T02:00:38.108Z,14.20
2023-04-21T02:11:37.993Z,12.50
2023-04-21T02:21:42.205Z,16.40
2023-04-21T02:32:47.221Z,15.80
2023-04-21T02:43:46.985Z,13.30
2023-04-21T02:54:46.865Z,11.60
2023-04-21T03:05:46.737Z,15.00
2023-04-21T03:16:46.614Z,14.30
2023-04-21T03:27:46.471Z,16.80
2023-04-21T03:38:46.348Z,14.70
2023-04-21T03:49:46.218Z,12.80
2023-04-21T04:00:46.107Z,12.10
2023-04-21T04:11:45.980Z,15.60
2023-04-21T04:22:45.844Z,16.60
2023-04-21T04:33:45.727Z,17.40
2023-04-21T04:44:45.595Z,19.80
2023-04-21T04:55:45.481Z,14.70
2023-04-21T05:06:45.362Z,16.30
2023-04-21T05:17:45.274Z,17.50
2023-04-21T05:28:45.098Z,17.30
2023-04-21T05:39:44.984Z,16.40
2023-04-21T05:50:44.849Z,15.30
2023-04-21T06:01:44.800Z,19.50
2023-04-21T06:12:44.596Z,20.10
2023-04-21T06:23:44.483Z,20.30
2023-04-21T06:34:44.348Z,19.60
2023-04-21T06:45:44.237Z,21.90
2023-04-21T06:56:44.121Z,20.80
2023-04-21T07:07:43.978Z,15.40
2023-04-21T07:18:43.876Z,18.50
2023-04-21T07:29:43.762Z,14.90
2023-04-21T07:40:43.608Z,20.70
2023-04-21T07:51:43.480Z,16.60
2023-04-21T08:02:43.432Z,23.30
2023-04-21T08:13:43.231Z,22.30
2023-04-21T08:24:43.123Z,24.50
2023-04-21T08:35:54.920Z,18.90
2023-04-21T08:46:42.850Z,22.40
2023-04-21T08:57:42.751Z,24.20
2023-04-21T09:08:42.603Z,21.40
2023-04-21T09:19:42.480Z,18.90
2023-04-21T09:30:42.430Z,13.80
2023-04-21T09:41:42.247Z,13.50
2023-04-21T09:52:43.125Z,13.90
2023-04-21T10:03:42.211Z,11.40
2023-04-21T10:14:41.853Z,9.40
2023-04-21T10:25:41.740Z,9.40
2023-04-21T10:36:41.661Z,12.00
2023-04-21T10:47:41.550Z,10.20
2023-04-21T10:58:41.355Z,9.10
2023-04-21T10:59:36.361Z,9.20
2023-04-21T11:00:36.370Z,10.60
2023-04-21T11:11:41.240Z,8.80
2023-04-21T11:22:41.089Z,9.60
2023-04-21T11:33:40.969Z,10.20
2023-04-21T11:44:40.862Z,8.50
2023-04-21T11:55:40.742Z,9.00
2023-04-21T12:06:40.591Z,8.30
2023-04-21T12:07:35.618Z,8.50
2023-04-21T12:08:35.569Z,8.80
2023-04-21T12:19:40.495Z,9.20
2023-04-21T12:20:35.642Z,9.10
2023-04-21T12:21:35.427Z,9.30
2023-04-21T12:32:40.418Z,7.80
2023-04-21T12:33:35.304Z,7.60
2023-04-21T12:34:35.277Z,9.20
2023-04-21T12:45:40.176Z,7.30
2023-04-21T12:46:35.155Z,8.10
2023-04-21T12:47:35.364Z,8.90
2023-04-21T12:58:40.008Z,7.40
2023-04-21T12:59:35.017Z,7.90
2023-04-21T13:00:34.991Z,9.50
2023-04-21T13:11:39.948Z,8.50
2023-04-21T13:22:39.748Z,6.60
2023-04-21T13:33:39.612Z,6.90
2023-04-21T13:44:39.542Z,7.50
2023-04-21T13:55:39.394Z,6.90
2023-04-21T14:06:39.253Z,8.20
2023-04-21T14:17:39.161Z,7.00
2023-04-21T14:28:39.047Z,6.90
2023-04-21T14:39:38.924Z,6.70
2023-04-21T14:50:38.772Z,6.80
2023-04-21T15:01:38.713Z,7.10
2023-04-21T15:12:38.518Z,7.30
2023-04-21T15:23:38.367Z,7.30
2023-04-21T15:34:38.233Z,5.80
2023-04-21T15:45:38.120Z,5.80
2023-04-21T15:56:38.046Z,5.70
2023-04-21T16:07:37.970Z,6.40
2023-04-21T16:18:37.955Z,6.70
2023-04-21T16:29:37.626Z,7.10
2023-04-21T16:40:37.479Z,3.20
2023-04-21T16:51:37.409Z,2.00
2023-04-21T17:02:37.389Z,1.70
2023-04-21T17:13:37.126Z,1.60
2023-04-21T17:24:51.579Z,2.10
2023-04-21T17:35:37.945Z,1.80
2023-04-21T17:46:36.793Z,2.10
2023-04-21T17:57:36.637Z,2.30
2023-04-21T18:08:36.472Z,1.90
2023-04-21T18:19:36.356Z,1.90
2023-04-21T18:30:36.238Z,2.40
2023-04-21T18:41:36.096Z,1.80
2023-04-21T18:52:36.000Z,2.70
2023-04-21T19:03:36.054Z,3.10
2023-04-21T19:14:46.096Z,2.60
2023-04-21T19:25:35.604Z,2.20
2023-04-21T19:36:35.482Z,3.30
2023-04-21T19:47:35.354Z,2.80
2023-04-21T19:58:40.877Z,3.50
2023-04-21T20:09:35.148Z,3.50
2023-04-21T20:20:35.075Z,2.70
2023-04-21T20:31:34.881Z,4.90
2023-04-21T20:42:34.732Z,4.30
2023-04-21T20:53:34.601Z,5.00
2023-04-21T21:04:34.519Z,2.30
2023-04-21T21:15:34.382Z,3.00
2023-04-21T21:26:34.287Z,2.80
2023-04-21T21:37:34.121Z,3.80
2023-04-21T21:48:33.990Z,4.00
2023-04-21T21:59:33.862Z,3.50
2023-04-21T22:10:33.743Z,3.40
2023-04-21T22:21:33.628Z,2.70
2023-04-21T22:32:33.524Z,3.40
2023-04-21T22:43:33.418Z,3.00
2023-04-21T22:54:33.243Z,2.20
2023-04-21T23:05:33.132Z,4.20
2023-04-21T23:16:33.047Z,3.70
2023-04-21T23:27:32.968Z,4.50
2023-04-21T23:38:32.768Z,4.30
2023-04-21T23:49:32.641Z,3.70
